Time;durP1;ratioP1;P1;durP2;ratioP2;P2;SDS_P1;SDS_P2;PMS_P1;PMS_P2;Temp;Humidity;BMP_temperature;BMP_pressure;BME280_temperature;BME280_humidity;BME280_pressure;Samples;Min_cycle;Max_cycle;Signal;HPM_P1;HPM_P2
2023/09/14 09:40:18;;;;;;;1.60;0.85;;;;;;;24.25;60.12;100394.41;1867682;76;26832;-49
2023/09/14 09:42:46;;;;;;;1.45;0.80;;;;;;;24.08;60.02;100391.12;1824563;78;25446;-50
2023/09/14 09:45:14;;;;;;;2.20;1.30;;;;;;;23.94;59.79;100387.20;1824490;78;28252;-49
2023/09/14 09:47:42;;;;;;;3.05;1.10;;;;;;;23.80;60.24;100385.23;1803925;78;25397;-53
2023/09/14 09:50:14;;;;;;;2.52;0.90;;;;;;;23.69;59.70;100389.37;1824418;78;25393;-51
2023/09/14 09:52:43;;;;;;;1.95;1.00;;;;;;;23.61;59.81;100396.08;1823643;78;25546;-50
2023/09/14 09:55:22;;;;;;;;;;;;;;;23.50;59.91;100387.03;1827232;78;25600;-53
2023/09/14 09:57:52;;;;;;;;;;;;;;;23.41;59.90;100390.19;1819375;78;27447;-51
2023/09/14 10:00:22;;;;;;;1.65;0.60;;;;;;;23.31;59.81;100399.26;1823339;78;25602;-52
2023/09/14 10:02:54;;;;;;;1.75;1.00;;;;;;;23.18;60.62;100393.92;1804031;78;25509;-50
2023/09/14 10:05:31;;;;;;;1.05;0.90;;;;;;;23.10;60.40;100399.44;1824448;78;25736;-51
2023/09/14 10:08:01;;;;;;;1.00;0.80;;;;;;;23.04;60.51;100404.33;1824436;78;25427;-51
2023/09/14 10:10:32;;;;;;;1.98;0.82;;;;;;;22.98;60.11;100411.39;1824475;78;27447;-51
2023/09/14 10:12:59;;;;;;;4.15;0.72;;;;;;;22.89;60.44;100409.79;1824424;78;25571;-50
2023/09/14 10:15:29;;;;;;;3.10;0.95;;;;;;;22.82;60.45;100404.86;1824486;78;25430;-50
2023/09/14 10:17:58;;;;;;;2.02;0.72;;;;;;;22.71;60.20;100415.84;1824520;78;34666;-50
2023/09/14 10:20:26;;;;;;;3.75;1.00;;;;;;;22.58;60.91;100415.42;1824625;78;25605;-52
2023/09/14 10:22:53;;;;;;;0.93;0.75;;;;;;;22.47;61.09;100413.20;1824414;78;27459;-49
2023/09/14 10:25:21;;;;;;;1.22;0.68;;;;;;;22.38;60.96;100421.22;1824362;78;25586;-50
2023/09/14 10:27:49;;;;;;;1.47;1.10;;;;;;;22.33;61.43;100424.95;1824431;78;25407;-47
2023/09/14 10:30:19;;;;;;;0.90;0.75;;;;;;;22.27;61.45;100424.50;1824396;78;26200;-49
2023/09/14 10:32:55;;;;;;;1.45;0.78;;;;;;;22.24;61.75;100421.73;1824497;78;25387;-50
2023/09/14 10:35:23;;;;;;;1.00;0.93;;;;;;;22.23;62.46;100424.27;1824458;78;27593;-49
2023/09/14 10:37:53;;;;;;;1.20;0.80;;;;;;;22.28;62.40;100430.23;1824280;78;25361;-50
2023/09/14 10:40:21;;;;;;;0.70;0.70;;;;;;;22.33;62.53;100430.45;1830129;78;25714;-51
2023/09/14 10:42:48;;;;;;;3.70;0.90;;;;;;;22.37;62.56;100432.06;1830492;77;25612;-48
2023/09/14 10:45:15;;;;;;;1.00;0.90;;;;;;;22.48;63.00;100439.59;1830507;78;25494;-52
2023/09/14 10:47:47;;;;;;;2.70;0.80;;;;;;;22.62;62.90;100430.59;1830512;77;27537;-50
2023/09/14 10:50:16;;;;;;;1.07;0.78;;;;;;;22.72;62.45;100428.46;1830234;78;25509;-51
2023/09/14 10:52:43;;;;;;;1.10;0.70;;;;;;;22.78;62.01;100428.86;1830119;78;25349;-50
2023/09/14 10:55:11;;;;;;;1.17;0.85;;;;;;;22.74;61.20;100435.75;1829909;78;25895;-50
2023/09/14 10:57:42;;;;;;;3.85;0.70;;;;;;;22.68;60.58;100436.72;1829999;78;25548;-50
2023/09/14 11:00:32;;;;;;;2.75;0.90;;;;;;;22.59;60.72;100439.63;1829967;78;27455;-49
2023/09/14 11:02:59;;;;;;;1.47;0.75;;;;;;;22.47;60.92;100442.91;1829932;77;25498;-49
2023/09/14 11:05:43;;;;;;;2.72;1.02;;;;;;;22.40;61.35;100444.86;1829987;77;25546;-50
2023/09/14 11:08:12;;;;;;;1.05;0.80;;;;;;;22.41;61.81;100440.91;1829950;77;25600;-50
2023/09/14 11:10:39;;;;;;;0.78;0.57;;;;;;;22.52;62.44;100444.52;1830216;77;25462;-48
2023/09/14 11:13:26;;;;;;;2.35;1.65;;;;;;;22.67;62.93;100442.02;1813363;78;27474;-51
2023/09/14 11:15:59;;;;;;;1.62;1.12;;;;;;;22.74;62.53;100444.02;1829904;78;25588;-49
2023/09/14 11:18:48;;;;;;;0.80;0.70;;;;;;;22.80;61.59;100443.05;1828079;77;25549;-47
2023/09/14 11:21:43;;;;;;;0.98;0.68;;;;;;;22.82;61.15;100447.60;1829736;77;25795;-49
2023/09/14 11:24:07;;;;;;;1.42;1.32;;;;;;;22.83;61.27;100454.11;1829026;77;25557;-47
2023/09/14 11:26:44;;;;;;;1.55;1.40;;;;;;;22.84;60.91;100456.27;1829963;77;28053;-47
2023/09/14 11:29:13;;;;;;;1.30;1.22;;;;;;;22.85;61.04;100449.56;1829932;78;25570;-47
2023/09/14 11:31:42;;;;;;;2.50;1.02;;;;;;;22.99;62.17;100452.38;1830073;78;25529;-47
2023/09/14 11:34:14;;;;;;;4.40;3.00;;;;;;;23.17;61.46;100453.03;1829952;78;25595;-50
2023/09/14 11:36:44;;;;;;;1.17;0.78;;;;;;;23.22;60.67;100447.91;1830095;77;25580;-48
2023/09/14 11:39:14;;;;;;;1.50;0.65;;;;;;;23.22;60.16;100454.80;1829776;78;27814;-50
2023/09/14 11:41:52;;;;;;;5.25;3.70;;;;;;;23.22;59.34;100454.02;1829911;78;25819;-50
2023/09/14 11:44:21;;;;;;;44.63;38.15;;;;;;;23.17;59.40;100448.89;1829938;77;25549;-50
2023/09/14 11:46:50;;;;;;;3.43;2.40;;;;;;;23.10;59.54;100452.42;1830234;77;25824;-49
2023/09/14 11:49:21;;;;;;;1.82;1.15;;;;;;;23.01;59.50;100454.15;1830161;78;25451;-48
2023/09/14 11:51:54;;;;;;;0.60;0.50;;;;;;;22.96;59.60;100460.64;1813737;78;27363;-50
2023/09/14 11:54:21;;;;;;;1.55;1.42;;;;;;;22.88;59.75;100458.44;1829873;78;25506;-52
2023/09/14 11:56:49;;;;;;;1.50;0.85;;;;;;;22.84;60.17;100463.16;1829870;78;25367;-50
2023/09/14 11:59:31;;;;;;;3.27;2.65;;;;;;;22.83;60.49;100462.95;1829869;77;25445;-54
2023/09/14 12:02:01;;;;;;;1.82;0.90;;;;;;;22.85;61.40;100467.48;1829944;78;25398;-53
2023/09/14 12:04:29;;;;;;;1.10;0.70;;;;;;;22.94;61.56;100466.55;1829815;77;28004;-51
2023/09/14 12:07:03;;;;;;;1.67;1.35;;;;;;;23.07;61.36;100469.75;1813935;78;25182;-53
2023/09/14 12:09:42;;;;;;;3.87;2.40;;;;;;;23.16;60.98;100475.70;1813060;78;25580;-56
2023/09/14 12:12:14;;;;;;;1.35;0.70;;;;;;;23.21;61.04;100470.39;1829925;77;25823;-51
2023/09/14 12:14:46;;;;;;;1.85;1.00;;;;;;;23.23;60.02;100477.09;1825996;77;25425;-51
2023/09/14 12:17:24;;;;;;;1.75;1.07;;;;;;;23.20;60.10;100473.73;1829026;77;27528;-51
2023/09/14 12:19:59;;;;;;;3.95;1.17;;;;;;;23.13;59.76;100470.95;1828997;77;25529;-51
2023/09/14 12:22:31;;;;;;;1.20;0.78;;;;;;;23.06;59.83;100480.60;1829935;77;25435;-54
2023/09/14 12:25:03;;;;;;;2.08;1.02;;;;;;;22.95;59.43;100479.14;1829900;78;25603;-51
2023/09/14 12:27:32;;;;;;;4.15;3.95;;;;;;;22.88;59.93;100477.74;1830003;77;25582;-53
2023/09/14 12:30:00;;;;;;;1.92;1.77;;;;;;;22.83;60.29;100484.44;1829954;78;27242;-50
2023/09/14 12:32:27;;;;;;;2.77;1.25;;;;;;;22.81;60.42;100483.23;1813646;78;26741;-52
2023/09/14 12:34:54;;;;;;;0.68;0.40;;;;;;;22.83;60.62;100483.06;1829922;77;25566;-51
2023/09/14 12:37:22;;;;;;;2.08;0.98;;;;;;;22.91;60.80;100480.51;1829814;77;25711;-55
2023/09/14 12:39:53;;;;;;;3.17;2.25;;;;;;;23.02;60.79;100484.70;1826892;77;25578;-57
2023/09/14 12:42:23;;;;;;;1.22;1.02;;;;;;;23.18;60.78;100478.85;1823779;78;27530;-53
2023/09/14 12:44:53;;;;;;;3.50;1.70;;;;;;;23.46;61.35;100482.83;1823754;78;25379;-54
2023/09/14 12:47:20;;;;;;;1.22;1.10;;;;;;;23.76;61.15;100479.70;1823754;78;25620;-54
2023/09/14 12:49:47;;;;;;;2.58;1.82;;;;;;;24.00;60.14;100479.52;1823711;78;25396;-55
2023/09/14 12:52:14;;;;;;;1.35;1.25;;;;;;;24.16;59.29;100482.45;1823775;78;25598;-55
2023/09/14 12:54:42;;;;;;;5.55;3.92;;;;;;;24.27;58.95;100487.98;1823735;78;27456;-56
2023/09/14 12:57:15;;;;;;;1.42;1.27;;;;;;;24.33;58.01;100490.52;1823652;78;25372;-54
2023/09/14 13:00:17;;;;;;;3.47;1.22;;;;;;;24.34;57.40;100488.73;1823759;78;25481;-55
2023/09/14 13:02:48;;;;;;;1.98;1.80;;;;;;;24.31;57.18;100492.89;1823712;78;26010;-56
2023/09/14 13:05:22;;;;;;;2.42;0.80;;;;;;;24.33;57.08;100498.23;1823765;78;25384;-53
2023/09/14 13:07:52;;;;;;;0.75;0.60;;;;;;;24.33;56.86;100490.52;1823746;78;27525;-54
2023/09/14 13:10:25;;;;;;;2.58;1.55;;;;;;;24.33;56.59;100495.47;1823646;78;25506;-56
2023/09/14 13:13:00;;;;;;;3.77;0.80;;;;;;;24.33;56.31;100500.19;1823469;78;25447;-57
2023/09/14 13:15:30;;;;;;;3.20;0.90;;;;;;;24.28;56.01;100488.97;1823285;78;25361;-57
2023/09/14 13:18:03;;;;;;;1.40;1.00;;;;;;;24.23;55.78;100497.66;1823732;78;25644;-55
2023/09/14 13:20:35;;;;;;;3.80;2.22;;;;;;;24.14;56.00;100493.12;1823695;78;27422;-55
2023/09/14 13:23:05;;;;;;;5.35;2.02;;;;;;;24.06;56.06;100502.03;1823676;78;25605;-56
2023/09/14 13:25:33;;;;;;;1.17;1.00;;;;;;;23.98;55.98;100499.84;1823748;78;25613;-52
2023/09/14 13:28:01;;;;;;;2.27;0.60;;;;;;;23.88;56.08;100504.78;1823602;78;25630;-49
2023/09/14 13:30:28;;;;;;;1.95;1.87;;;;;;;23.77;56.10;100500.63;1823731;78;25593;-54
2023/09/14 13:32:56;;;;;;;43.90;29.10;;;;;;;23.70;56.32;100506.15;1823672;78;27007;-50
2023/09/14 13:35:26;;;;;;;17.73;14.10;;;;;;;23.63;56.87;100506.93;1823714;78;26122;-49
2023/09/14 13:37:54;;;;;;;8.80;6.60;;;;;;;23.52;56.77;100502.58;1823802;78;25428;-50
2023/09/14 13:40:21;;;;;;;3.35;2.15;;;;;;;23.43;56.85;100505.72;1826729;77;25593;-49
2023/09/14 13:42:52;;;;;;;1.22;0.95;;;;;;;23.35;56.92;100506.89;1829832;78;25112;-49
2023/09/14 13:45:21;;;;;;;4.45;4.12;;;;;;;23.25;56.90;100505.67;1829823;77;28026;-52
2023/09/14 13:47:50;;;;;;;43.23;34.60;;;;;;;23.13;56.54;100510.96;1829754;78;25380;-50
2023/09/14 13:50:18;;;;;;;;;;;;;;;23.03;57.02;100510.30;1832483;77;25395;-52
2023/09/14 13:52:46;;;;;;;3.87;2.95;;;;;;;22.94;57.15;100514.21;1829738;78;25533;-46
2023/09/14 13:55:15;;;;;;;6.05;1.27;;;;;;;22.85;57.34;100512.41;1829898;77;25639;-47
2023/09/14 13:57:44;;;;;;;6.12;4.83;;;;;;;22.78;57.39;100508.82;1829982;77;28027;-46
2023/09/14 14:00:14;;;;;;;8.93;2.05;;;;;;;22.68;57.24;100512.53;1829626;77;25699;-47
2023/09/14 14:02:47;;;;;;;3.47;3.27;;;;;;;22.62;57.51;100511.91;1829788;78;25615;-47
2023/09/14 14:05:15;;;;;;;2.33;1.57;;;;;;;22.54;57.71;100516.01;1829782;78;25464;-49
2023/09/14 14:07:42;;;;;;;6.78;2.72;;;;;;;22.47;57.81;100517.33;1829767;77;25365;-47
2023/09/14 14:10:09;;;;;;;8.70;3.40;;;;;;;22.39;58.12;100515.72;1829773;77;27465;-48
2023/09/14 14:12:37;;;;;;;2.15;1.60;;;;;;;22.32;58.29;100519.78;1829648;77;25379;-47
2023/09/14 14:15:06;;;;;;;11.00;8.00;;;;;;;22.29;58.72;100520.58;1829744;77;25431;-48
2023/09/14 14:17:32;;;;;;;10.45;9.38;;;;;;;22.24;59.05;100523.06;1829681;78;25592;-47
2023/09/14 14:19:58;;;;;;;30.88;29.25;;;;;;;22.19;59.14;100518.70;1829744;78;25589;-48
2023/09/14 14:22:24;;;;;;;5.12;2.98;;;;;;;22.17;59.61;100524.40;1829757;78;27072;-48
2023/09/14 14:24:51;;;;;;;7.33;3.85;;;;;;;22.14;59.83;100523.78;1829688;78;25639;-47
2023/09/14 14:27:18;;;;;;;6.65;6.15;;;;;;;22.12;59.87;100522.00;1829925;78;25613;-49
2023/09/14 14:29:45;;;;;;;4.72;4.30;;;;;;;22.11;59.97;100525.32;1829844;77;25642;-50
2023/09/14 14:32:12;;;;;;;3.92;3.40;;;;;;;22.09;59.98;100525.52;1829957;78;25534;-50
2023/09/14 14:34:38;;;;;;;6.80;6.33;;;;;;;22.06;60.00;100521.55;1829901;78;27514;-48
2023/09/14 14:37:06;;;;;;;6.25;5.78;;;;;;;22.03;60.08;100525.66;1829847;77;25528;-48
2023/09/14 14:39:32;;;;;;;4.55;4.22;;;;;;;21.99;60.48;100523.66;1829513;78;25448;-49
2023/09/14 14:41:58;;;;;;;9.68;9.18;;;;;;;21.99;60.41;100528.38;1823784;78;25524;-48
2023/09/14 14:44:25;;;;;;;3.98;3.58;;;;;;;21.99;60.79;100533.89;1823833;78;25436;-48
2023/09/14 14:46:52;;;;;;;3.33;1.20;;;;;;;21.99;60.92;100529.16;1823888;78;27669;-48
2023/09/14 14:49:19;;;;;;;6.60;1.30;;;;;;;21.99;60.89;100538.80;1823835;78;25690;-49
2023/09/14 14:51:46;;;;;;;1.35;0.70;;;;;;;21.99;61.19;100535.27;1823821;78;25364;-47
2023/09/14 14:54:13;;;;;;;3.30;1.10;;;;;;;21.96;61.23;100536.84;1823755;78;26046;-48
2023/09/14 14:56:40;;;;;;;14.70;1.60;;;;;;;21.95;61.38;100532.48;1823788;78;25566;-48
2023/09/14 14:59:07;;;;;;;6.80;1.27;;;;;;;21.96;61.38;100542.91;1823706;78;29604;-48
2023/09/14 15:01:34;;;;;;;2.12;1.15;;;;;;;21.97;61.53;100531.52;1823727;78;25518;-50
2023/09/14 15:04:01;;;;;;;56.40;49.98;;;;;;;21.98;61.35;100535.05;1823720;78;25399;-48
2023/09/14 15:06:27;;;;;;;29.82;26.68;;;;;;;21.95;60.62;100533.08;1823739;78;25581;-48
2023/09/14 15:08:54;;;;;;;3.33;1.95;;;;;;;21.94;60.64;100533.65;1823832;78;25572;-50
2023/09/14 15:11:20;;;;;;;3.10;1.35;;;;;;;21.95;60.67;100533.86;1823752;78;27536;-48
2023/09/14 15:13:46;;;;;;;2.70;1.20;;;;;;;21.96;60.51;100536.84;1823706;78;25468;-52
2023/09/14 15:16:14;;;;;;;2.80;1.30;;;;;;;21.97;60.75;100537.02;1823760;78;25384;-48
2023/09/14 15:18:41;;;;;;;3.25;2.77;;;;;;;22.00;60.08;100540.39;1823715;78;25559;-48
2023/09/14 15:21:08;;;;;;;2.42;2.22;;;;;;;22.04;59.84;100545.93;1822296;78;25608;-47
2023/09/14 15:23:35;;;;;;;4.42;4.08;;;;;;;22.06;59.73;100544.17;1822365;78;27538;-51
2023/09/14 15:26:04;;;;;;;4.80;2.22;;;;;;;22.07;59.42;100546.55;1823636;78;25583;-49
2023/09/14 15:28:32;;;;;;;2.92;2.72;;;;;;;22.07;59.26;100545.17;1823697;78;25452;-48
2023/09/14 15:31:10;;;;;;;5.45;4.67;;;;;;;22.09;59.28;100548.33;1823794;78;25412;-49
2023/09/14 15:33:37;;;;;;;6.17;4.47;;;;;;;22.08;59.17;100548.11;1823477;78;25447;-47
2023/09/14 15:36:05;;;;;;;7.95;7.08;;;;;;;22.07;59.19;100546.55;1823675;78;29707;-48
2023/09/14 15:38:32;;;;;;;5.20;3.98;;;;;;;22.07;59.03;100552.06;1823648;78;25615;-49
2023/09/14 15:40:58;;;;;;;7.22;6.45;;;;;;;22.06;58.88;100557.35;1826509;78;25389;-47
2023/09/14 15:43:25;;;;;;;10.55;4.03;;;;;;;22.04;58.79;100558.33;1829787;77;25826;-47
2023/09/14 15:45:57;;;;;;;5.05;2.47;;;;;;;22.03;58.89;100562.83;1829879;77;25381;-48
2023/09/14 15:48:23;;;;;;;4.92;4.22;;;;;;;22.02;58.81;100568.94;1829846;77;28024;-49
2023/09/14 15:50:51;;;;;;;101.50;75.60;;;;;;;22.00;58.75;100565.78;1829804;78;25605;-49
2023/09/14 15:53:19;;;;;;;13.90;8.45;;;;;;;21.98;58.72;100570.28;1830054;77;25589;-49
2023/09/14 15:55:47;;;;;;;4.47;3.08;;;;;;;21.96;58.40;100569.88;1829802;78;25917;-50
2023/09/14 15:58:14;;;;;;;4.97;3.37;;;;;;;21.90;58.36;100569.23;1829867;77;25451;-50
2023/09/14 16:00:40;;;;;;;4.00;3.70;;;;;;;21.87;58.07;100565.85;1829788;77;27420;-49
2023/09/14 16:03:08;;;;;;;8.25;4.33;;;;;;;21.84;58.07;100572.89;1829687;78;25594;-49
2023/09/14 16:05:35;;;;;;;6.22;3.05;;;;;;;21.78;57.90;100572.45;1829803;77;25407;-49
2023/09/14 16:08:09;;;;;;;5.58;4.97;;;;;;;21.73;58.03;100573.39;1829757;78;25536;-49
2023/09/14 16:10:38;;;;;;;9.23;3.33;;;;;;;21.68;58.18;100575.11;1829859;77;25529;-49
2023/09/14 16:13:09;;;;;;;3.33;2.67;;;;;;;21.61;58.63;100569.73;1829813;78;27971;-49
2023/09/14 16:15:33;;;;;;;3.50;1.40;;;;;;;21.52;58.42;100569.25;1829648;77;25588;-50
2023/09/14 16:18:00;;;;;;;6.35;1.37;;;;;;;21.48;58.27;100578.63;1828811;77;25554;-50
2023/09/14 16:20:28;;;;;;;3.42;1.40;;;;;;;21.42;58.34;100582.28;1829016;77;25574;-49
2023/09/14 16:22:55;;;;;;;3.67;2.85;;;;;;;21.34;58.50;100580.02;1829741;78;25649;-49
2023/09/14 16:25:23;;;;;;;10.15;9.15;;;;;;;21.26;58.80;100581.88;1829792;77;27325;-49
2023/09/14 16:27:49;;;;;;;7.22;6.35;;;;;;;21.17;58.64;100583.36;1829685;78;25566;-49
2023/09/14 16:30:15;;;;;;;6.15;5.67;;;;;;;21.11;58.64;100590.34;1828958;77;25544;-49
2023/09/14 16:32:41;;;;;;;6.90;5.42;;;;;;;21.02;58.72;100593.37;1828704;78;26305;-50
2023/09/14 16:35:09;;;;;;;5.20;3.17;;;;;;;20.95;59.25;100598.19;1829801;78;25432;-48
2023/09/14 16:37:35;;;;;;;11.05;10.03;;;;;;;20.87;59.21;100597.88;1829755;78;28403;-53
2023/09/14 16:40:03;;;;;;;8.03;7.40;;;;;;;20.79;59.08;100597.56;1829596;78;25379;-51
2023/09/14 16:42:31;;;;;;;9.08;8.40;;;;;;;20.71;59.24;100603.56;1823841;77;25550;-49
2023/09/14 16:44:57;;;;;;;8.38;7.15;;;;;;;20.64;59.51;100603.45;1823639;78;26412;-50
2023/09/14 16:47:24;;;;;;;9.20;8.55;;;;;;;20.56;59.82;100605.27;1823696;78;25400;-52
2023/09/14 16:49:52;;;;;;;8.65;7.95;;;;;;;20.50;59.98;100611.66;1823660;78;27086;-52
2023/09/14 16:52:18;;;;;;;11.25;10.45;;;;;;;20.42;59.94;100616.05;1823563;78;25574;-49
2023/09/14 16:54:45;;;;;;;13.10;12.28;;;;;;;20.34;60.25;100611.00;1823649;78;25408;-49
2023/09/14 16:57:12;;;;;;;12.10;11.03;;;;;;;20.26;60.15;100616.97;1823631;78;25617;-49
2023/09/14 16:59:39;;;;;;;20.82;19.32;;;;;;;20.18;60.60;100622.12;1823652;78;25617;-50
2023/09/14 17:02:06;;;;;;;25.65;24.07;;;;;;;20.10;60.44;100623.94;1823665;78;27547;-48
2023/09/14 17:04:34;;;;;;;24.77;23.42;;;;;;;20.03;60.53;100625.78;1823566;78;26052;-50
2023/09/14 17:07:00;;;;;;;27.52;25.48;;;;;;;19.95;61.14;100629.78;1823654;78;25594;-48
2023/09/14 17:09:27;;;;;;;11.48;10.48;;;;;;;19.87;61.12;100629.98;1823675;78;25460;-49
2023/09/14 17:11:55;;;;;;;10.05;8.83;;;;;;;19.78;61.63;100635.16;1823736;78;25555;-49
2023/09/14 17:14:24;;;;;;;10.00;9.23;;;;;;;19.73;61.61;100632.67;1823668;78;27475;-50
2023/09/14 17:16:50;;;;;;;9.05;8.20;;;;;;;19.66;61.52;100645.45;1823716;78;25551;-50
2023/09/14 17:19:16;;;;;;;9.38;8.68;;;;;;;19.59;62.07;100647.47;1823701;77;25537;-53
2023/09/14 17:21:42;;;;;;;8.83;8.08;;;;;;;19.53;62.19;100648.34;1823566;78;25613;-50
2023/09/14 17:24:09;;;;;;;13.45;11.73;;;;;;;19.49;62.32;100649.42;1823734;78;25542;-52
2023/09/14 17:26:35;;;;;;;14.43;13.30;;;;;;;19.45;62.73;100649.94;1823701;78;27492;-49
2023/09/14 17:29:04;;;;;;;10.03;9.18;;;;;;;19.39;62.92;100656.27;1823656;78;25570;-50
2023/09/14 17:31:31;;;;;;;17.07;15.70;;;;;;;19.34;63.07;100663.41;1823717;78;25364;-48
2023/09/14 17:33:59;;;;;;;18.15;16.45;;;;;;;19.30;63.12;100666.08;1823679;78;25589;-51
2023/09/14 17:36:27;;;;;;;15.40;14.25;;;;;;;19.25;62.89;100666.95;1823790;78;25596;-51
2023/09/14 17:38:53;;;;;;;21.97;20.43;;;;;;;19.18;62.84;100678.55;1823633;78;27483;-48
2023/09/14 17:41:20;;;;;;;32.05;30.02;;;;;;;19.13;63.00;100670.61;1825447;77;25385;-48
2023/09/14 17:43:47;;;;;;;32.20;30.17;;;;;;;19.09;62.98;100671.11;1829731;78;25448;-47
2023/09/14 17:46:15;;;;;;;2.47;1.80;;;;;;;19.04;63.09;100675.70;1829718;78;25630;-47
2023/09/14 17:48:42;;;;;;;5.60;2.50;;;;;;;19.04;63.02;100684.52;1829797;77;25547;-47
2023/09/14 17:51:12;;;;;;;4.37;2.45;;;;;;;19.00;62.90;100684.44;1829622;77;26699;-47
2023/09/14 17:53:42;;;;;;;3.25;1.90;;;;;;;18.96;63.05;100690.39;1829695;77;25392;-49
2023/09/14 17:56:09;;;;;;;4.33;2.10;;;;;;;18.91;63.13;100694.78;1829866;78;25564;-47
2023/09/14 17:58:35;;;;;;;7.78;2.60;;;;;;;18.89;63.24;100703.94;1829498;78;25499;-49
2023/09/14 18:01:03;;;;;;;6.92;3.55;;;;;;;18.87;63.58;100701.34;1828568;77;25695;-48
2023/09/14 18:03:30;;;;;;;14.10;10.45;;;;;;;18.85;63.47;100708.55;1828826;78;27471;-48
2023/09/14 18:05:56;;;;;;;6.15;4.03;;;;;;;18.82;63.46;100705.12;1828691;78;25762;-48
2023/09/14 18:08:23;;;;;;;4.17;2.17;;;;;;;18.78;63.55;100710.52;1828510;78;25729;-48
2023/09/14 18:10:55;;;;;;;4.75;2.52;;;;;;;18.76;63.55;100714.19;1828725;77;25620;-50
2023/09/14 18:13:22;;;;;;;4.50;2.42;;;;;;;18.73;63.64;100710.78;1829113;77;25618;-47
2023/09/14 18:15:56;;;;;;;6.08;2.10;;;;;;;18.72;63.79;100711.92;1829515;78;28358;-49
2023/09/14 18:18:24;;;;;;;5.90;2.10;;;;;;;18.70;63.84;100712.06;1829492;78;26003;-51
2023/09/14 18:20:53;;;;;;;7.22;2.33;;;;;;;18.69;64.21;100716.73;1829496;77;25291;-47
2023/09/14 18:23:21;;;;;;;5.05;1.75;;;;;;;18.67;64.27;100719.03;1829979;78;26246;-51
2023/09/14 18:25:54;;;;;;;8.23;3.70;;;;;;;18.69;64.53;100725.53;1830363;78;25416;-52
2023/09/14 18:28:23;;;;;;;6.42;3.37;;;;;;;18.68;64.60;100713.79;1830262;78;28051;-49
2023/09/14 18:30:50;;;;;;;2.75;1.92;;;;;;;18.68;64.71;100713.79;1830124;78;25745;-51
2023/09/14 18:33:16;;;;;;;2.72;1.85;;;;;;;18.70;64.62;100716.17;1830045;78;25525;-48
2023/09/14 18:35:42;;;;;;;9.20;6.78;;;;;;;18.71;64.62;100718.56;1815635;76;25661;-49
2023/09/14 18:38:08;;;;;;;9.80;6.60;;;;;;;18.73;64.65;100720.92;1748559;78;25769;-52
2023/09/14 18:40:35;;;;;;;18.20;6.45;;;;;;;18.74;64.54;100726.64;1824496;78;27468;-49
2023/09/14 18:43:04;;;;;;;24.25;7.90;;;;;;;18.76;64.57;100729.81;1825788;78;25692;-49
2023/09/14 18:45:31;;;;;;;12.18;5.40;;;;;;;18.77;64.48;100725.35;1825807;78;25573;-47
2023/09/14 18:48:02;;;;;;;7.12;4.97;;;;;;;18.76;64.52;100726.52;1825546;78;26189;-51
2023/09/14 18:50:31;;;;;;;6.28;2.60;;;;;;;18.77;64.44;100730.05;1825764;78;25252;-51
2023/09/14 18:53:14;;;;;;;6.50;4.40;;;;;;;18.77;64.32;100728.67;1825609;78;27401;-49
2023/09/14 18:55:50;;;;;;;7.28;3.85;;;;;;;18.75;64.16;100731.77;1756625;81;25669;-53
2023/09/14 18:58:45;;;;;;;7.90;4.47;;;;;;;18.81;64.38;100737.77;1925126;74;25272;-50
2023/09/14 19:01:16;;;;;;;5.65;4.03;;;;;;;18.72;64.26;100737.16;1894977;75;25500;-49
2023/09/14 19:03:42;;;;;;;7.55;2.25;;;;;;;18.69;64.26;100739.23;1817665;78;28295;-51
2023/09/14 19:06:10;;;;;;;4.87;3.47;;;;;;;18.66;64.35;100744.83;1809577;74;26432;-49
2023/09/14 19:08:40;;;;;;;10.20;4.97;;;;;;;18.65;64.36;100750.11;1724259;83;25491;-50
2023/09/14 19:11:06;;;;;;;5.45;2.80;;;;;;;18.63;64.37;100751.03;1734027;82;25599;-51
2023/09/14 19:14:31;;;;;;;7.37;4.23;;;;;;;18.67;63.91;100760.13;1889422;74;32283;-49
2023/09/14 19:16:58;;;;;;;9.10;5.25;;;;;;;18.59;63.77;100759.17;1789775;80;25591;-53
2023/09/14 19:21:21;;;;;;;23.92;22.25;;;;;;;18.57;63.99;100770.23;1905573;74;25242;-50
2023/09/14 19:27:08;;;;;;;6.87;5.80;;;;;;;18.38;64.11;100774.45;1908761;74;37973;-51
2023/09/14 19:31:13;;;;;;;74.00;69.65;;;;;;;18.34;64.00;100780.41;1905573;74;25307;-49
2023/09/14 19:33:44;;;;;;;67.27;63.05;;;;;;;18.16;64.21;100771.69;1859966;77;25536;-50
2023/09/14 19:36:10;;;;;;;69.80;65.60;;;;;;;18.08;64.33;100772.63;1859984;76;27879;-50
2023/09/14 19:39:40;;;;;;;71.72;67.40;;;;;;;18.02;64.37;100778.15;1905568;74;25597;-51
2023/09/14 19:42:10;;;;;;;71.75;67.55;;;;;;;17.87;64.64;100781.83;1859981;77;25351;-49
2023/09/14 19:44:39;;;;;;;62.60;58.83;;;;;;;17.80;64.79;100786.28;1859966;77;28151;-49
2023/09/14 19:49:34;;;;;;;79.12;74.05;;;;;;;17.62;65.71;100796.67;1758322;80;25654;-48
2023/09/14 19:53:26;;;;;;;77.85;73.05;;;;;;;17.51;66.39;100797.14;1905597;74;25297;-49
2023/09/14 19:55:53;;;;;;;77.42;72.42;;;;;;;17.30;66.35;100799.23;1859891;77;25624;-49
2023/09/14 19:58:23;;;;;;;106.20;97.10;;;;;;;17.18;66.91;100798.08;1859887;77;27529;-48
2023/09/14 20:00:51;;;;;;;83.27;77.60;;;;;;;17.08;67.00;100801.84;1859931;77;25517;-50
2023/09/14 20:03:17;;;;;;;77.17;72.15;;;;;;;16.99;67.34;100811.48;1838956;77;25384;-49
2023/09/14 20:05:48;;;;;;;77.62;72.87;;;;;;;16.92;67.78;100809.31;1859950;76;25518;-49
2023/09/14 20:08:14;;;;;;;77.00;72.30;;;;;;;16.85;67.34;100809.08;1860073;77;25593;-48
2023/09/14 20:10:41;;;;;;;76.12;71.45;;;;;;;16.82;67.85;100808.35;1859868;77;27801;-48
2023/09/14 20:13:08;;;;;;;75.95;71.25;;;;;;;16.77;67.47;100805.84;1838425;77;25694;-48
2023/09/14 20:15:53;;;;;;;76.05;70.90;;;;;;;16.83;68.10;100817.37;1905649;74;25491;-47
2023/09/14 20:19:26;;;;;;;74.10;69.67;;;;;;;16.77;68.13;100814.03;1925241;74;25240;-49
2023/09/14 20:21:57;;;;;;;76.37;71.55;;;;;;;16.62;67.98;100805.36;1895099;75;25489;-49
2023/09/14 20:24:24;;;;;;;75.30;70.40;;;;;;;16.62;67.98;100805.36;1822194;78;27471;-48
2023/09/14 20:26:52;;;;;;;76.75;71.72;;;;;;;16.58;68.09;100815.38;1855584;77;25533;-49
2023/09/14 20:29:21;;;;;;;75.97;71.22;;;;;;;16.54;68.45;100810.34;1822085;78;25530;-53
2023/09/14 20:34:01;;;;;;;67.22;63.20;;;;;;;16.56;69.43;100819.56;1905343;74;25260;-47
2023/09/14 20:38:27;;;;;;;73.42;69.03;;;;;;;16.46;69.06;100826.81;1905445;74;25293;-48
2023/09/14 20:42:25;;;;;;;76.77;72.03;;;;;;;16.39;69.24;100830.88;1924989;74;25303;-49
2023/09/14 20:44:52;;;;;;;94.37;87.17;;;;;;;16.25;69.28;100833.89;1822130;78;25612;-48
2023/09/14 20:49:18;;;;;;;90.07;83.60;;;;;;;16.24;69.35;100843.22;1905637;74;25245;-47
2023/09/14 20:51:47;;;;;;;78.00;72.80;;;;;;;16.12;69.81;100836.89;1858868;76;25560;-48
2023/09/14 21:01:32;;;;;;;77.80;72.87;;;;;;;16.03;69.87;100850.03;1904415;74;25561;-47
2023/09/14 21:04:22;;;;;;;92.53;85.87;;;;;;;15.98;70.08;100854.32;1925081;74;25407;-48
2023/09/14 21:06:48;;;;;;;83.78;77.87;;;;;;;15.86;70.28;100846.06;1894835;75;25350;-49
2023/09/14 21:09:14;;;;;;;83.17;77.60;;;;;;;15.84;70.62;100857.87;1894821;75;27437;-50
2023/09/14 21:11:40;;;;;;;76.95;72.05;;;;;;;15.80;70.22;100864.56;1894846;75;25544;-49
2023/09/14 21:14:07;;;;;;;76.95;72.20;;;;;;;15.77;70.26;100863.06;1894900;75;25581;-48
2023/09/14 21:16:34;;;;;;;78.10;72.47;;;;;;;15.74;70.64;100865.05;1894859;75;25755;-46
2023/09/14 21:19:01;;;;;;;77.12;71.92;;;;;;;15.68;70.54;100861.69;1877071;75;25536;-48
2023/09/14 21:21:27;;;;;;;77.72;72.87;;;;;;;15.63;70.90;100867.34;1859882;77;27525;-48
2023/09/14 21:23:54;;;;;;;78.50;73.55;;;;;;;15.58;71.05;100872.98;1859018;77;25668;-48
2023/09/14 21:26:20;;;;;;;88.85;82.45;;;;;;;15.52;71.00;100876.46;1858386;77;25486;-48
2023/09/14 21:28:48;;;;;;;93.42;86.37;;;;;;;15.48;71.53;100870.87;1858736;77;25581;-50
2023/09/14 21:31:16;;;;;;;90.00;83.45;;;;;;;15.44;71.45;100876.75;1859220;77;25632;-47
2023/09/14 21:33:43;;;;;;;48.17;45.20;;;;;;;15.40;71.41;100877.16;1859219;77;27534;-47
2023/09/14 21:36:11;;;;;;;76.17;71.37;;;;;;;15.37;71.79;100881.10;1859122;77;25686;-47
2023/09/14 21:38:39;;;;;;;76.17;71.53;;;;;;;15.32;71.67;100879.34;1859134;77;25842;-47